Portada
METAR-TAF:

METAR-TAF

Aeroports :

Iowa City Municipal Airport

Iowa City, Iowa, Estats Units d'Amèrica

latitud: 41-37-58N, longitud: 091-32-35W, altitud: 203 m

Observació

L'informe es va fer fa 54 minuts, a les 02:52 UTC
Vent 6 kt del Sud
Temperatura 28°C
Humitat 74%
Pressió 1013 hPa
Visibilitat: 16.1 km
Cel clar

METAR: KIOW 180252Z AUTO 18006KT 10SM CLR 28/23 A2992 RMK AO2 SLP125 T02830228 53004

Hora: 22:46 (03:46 UTC)


TAF: manca

Observacions i pronòstics meteorològics de més de 4000 aeroports (METAR i TAF).

Les estacions disponibles són els punts grocs i vermells al mapa.

Posi el ratolí al punt desitjat per veure el nom de l'estació.

Feu clic per veure les observacions i els pronòstics meteorològics.

Per canviar el mapa: feu clic els botons verds amb una creu de color negre per apropar; al botó verd amb un guió per allunyar la imatge; o en les fletxes verdes per a mapes adjacents.


METAR-TAF: